Anvik, Alaska
Current Conditions -  °F | °C
As of 5:16 AM on Saturday 25 Oct 2014 (Local Time) from PANV Reporting Station
Clear Clear  
Wind Chill: 17°   Ceiling: Unl
Heat Index: 27°   Visibility: 10mi
Dew Point: 21°   Wind: 9mph
Humidity: 80%   Direction: 160°SSE
Pressure: 29.84"   Gusts: NA
Location:  62.66°N, 160.21°W
Report Text: PANV 251316Z AUTO 16008KT 10SM CLR M03/M06 A2984 RMK AO1
Loading
Personal Weather Stations






























Interactive Weather Map
Tropical Storm Tracking
New forecast layout! Learn more

10-Day Weather Forecast

Advertisements
Track Severe Weather on mobile